Time;durP1;ratioP1;P1;durP2;ratioP2;P2;SDS_P1;SDS_P2;PMS_P1;PMS_P2;Temp;Humidity;BMP_temperature;BMP_pressure;BME280_temperature;BME280_humidity;BME280_pressure;Samples;Min_cycle;Max_cycle;Signal;HPM_P1;HPM_P2
2022/04/07 00:01:20;;;;;;;1.10;0.90;;;9.60;99.90;;;;;;4167544;28;20058;-79
2022/04/07 00:03:22;;;;;;;0.80;0.80;;;9.70;99.90;;;;;;4183383;28;20899;-80
2022/04/07 00:05:24;;;;;;;0.93;0.93;;;9.70;99.90;;;;;;4178171;28;20129;-79
2022/04/07 00:07:25;;;;;;;1.05;0.95;;;9.70;99.90;;;;;;4166260;28;20068;-80
2022/04/07 00:09:27;;;;;;;1.25;1.05;;;9.70;99.90;;;;;;4165501;28;20062;-79
2022/04/07 00:11:29;;;;;;;1.42;0.95;;;9.60;99.90;;;;;;4182318;28;20156;-79
2022/04/07 00:13:31;;;;;;;0.98;0.60;;;9.60;99.90;;;;;;4164549;28;21243;-80
2022/04/07 00:15:33;;;;;;;1.58;0.90;;;9.50;99.90;;;;;;4167029;28;20157;-80
2022/04/07 00:17:35;;;;;;;0.93;0.60;;;9.50;99.90;;;;;;4166935;28;20152;-80
2022/04/07 00:19:37;;;;;;;3.65;0.80;;;9.50;99.90;;;;;;4166566;28;20873;-80
2022/04/07 00:21:41;;;;;;;0.80;0.80;;;9.40;99.90;;;;;;4164782;28;20161;-80
2022/04/07 00:23:43;;;;;;;2.92;0.93;;;9.40;99.90;;;;;;4166320;28;20817;-80
2022/04/07 00:25:45;;;;;;;0.57;0.52;;;9.40;99.90;;;;;;4166066;28;21944;-80
2022/04/07 00:27:47;;;;;;;1.00;0.55;;;9.40;99.90;;;;;;4181913;28;20061;-79
2022/04/07 00:29:48;;;;;;;0.85;0.85;;;9.40;99.90;;;;;;4159704;28;20179;-78
2022/04/07 00:31:56;;;;;;;0.90;0.80;;;9.50;99.90;;;;;;4170237;28;20129;-79
2022/04/07 00:33:58;;;;;;;0.80;0.70;;;9.50;99.90;;;;;;4178298;28;20049;-81
2022/04/07 00:36:00;;;;;;;1.35;0.57;;;9.60;99.90;;;;;;4181041;28;20060;-80
2022/04/07 00:38:02;;;;;;;0.73;0.73;;;9.60;99.90;;;;;;4169045;28;20104;-80
2022/04/07 00:40:06;;;;;;;0.70;0.70;;;9.60;99.90;;;;;;4169712;28;20069;-80
2022/04/07 00:42:08;;;;;;;0.70;0.70;;;9.60;99.90;;;;;;4170111;28;20056;-79
2022/04/07 00:44:10;;;;;;;0.52;0.52;;;9.60;99.90;;;;;;4182886;28;20038;-79
2022/04/07 00:46:12;;;;;;;0.98;0.80;;;9.60;99.90;;;;;;4176280;28;20049;-81
2022/04/07 00:48:13;;;;;;;2.25;0.63;;;9.60;99.90;;;;;;4180081;28;20050;-80
2022/04/07 00:50:17;;;;;;;0.70;0.70;;;9.60;99.90;;;;;;4174416;28;20054;-81
2022/04/07 00:52:19;;;;;;;1.00;0.90;;;9.70;99.90;;;;;;4170796;28;20053;-79
2022/04/07 00:54:21;;;;;;;1.58;0.70;;;9.70;99.90;;;;;;4167219;28;20093;-81
2022/04/07 00:56:25;;;;;;;1.15;0.70;;;9.70;99.90;;;;;;4169104;28;20053;-78
2022/04/07 00:58:32;;;;;;;0.60;0.60;;;9.70;99.90;;;;;;4166674;28;20217;-80
2022/04/07 01:00:36;;;;;;;0.60;0.60;;;9.60;99.90;;;;;;4166439;28;20132;-79
2022/04/07 01:02:38;;;;;;;0.70;0.70;;;9.60;99.90;;;;;;4167905;28;20128;-80
2022/04/07 01:04:41;;;;;;;0.68;0.68;;;9.60;99.90;;;;;;4168409;28;20049;-79
2022/04/07 01:06:44;;;;;;;0.55;0.55;;;9.60;99.90;;;;;;4186121;28;20081;-82
2022/04/07 01:08:46;;;;;;;2.08;0.90;;;9.60;99.90;;;;;;4184123;28;20054;-82
2022/04/07 01:10:49;;;;;;;1.05;0.75;;;9.60;99.90;;;;;;4152576;28;20969;-82
2022/04/07 01:12:52;;;;;;;2.40;0.95;;;9.60;99.90;;;;;;4169968;28;20060;-83
2022/04/07 01:14:59;;;;;;;2.30;1.20;;;9.60;99.90;;;;;;4176257;28;20835;-80
2022/04/07 01:17:00;;;;;;;1.38;1.27;;;9.50;99.90;;;;;;4173484;28;20066;-79
2022/04/07 01:19:03;;;;;;;0.68;0.68;;;9.40;99.90;;;;;;4170087;28;20077;-80
2022/04/07 01:21:06;;;;;;;1.40;1.30;;;9.40;99.90;;;;;;4172724;28;20048;-79
2022/04/07 01:23:09;;;;;;;1.27;1.13;;;9.30;99.90;;;;;;4195721;28;20042;-79
2022/04/07 01:25:11;;;;;;;0.93;0.90;;;9.30;99.90;;;;;;4190720;28;20050;-81
2022/04/07 01:27:14;;;;;;;0.77;0.77;;;9.30;99.90;;;;;;4172142;28;20058;-82
2022/04/07 01:29:19;;;;;;;0.93;0.88;;;9.40;99.90;;;;;;4186530;28;20057;-82
2022/04/07 01:31:21;;;;;;;0.80;0.80;;;9.40;99.90;;;;;;4171107;28;20726;-80
2022/04/07 01:33:23;;;;;;;1.13;1.02;;;9.50;99.90;;;;;;4175700;28;20049;-82
2022/04/07 01:35:26;;;;;;;2.05;0.90;;;9.50;99.90;;;;;;4173151;28;20141;-82
2022/04/07 01:37:27;;;;;;;0.82;0.80;;;9.40;99.90;;;;;;4173964;28;20060;-82
2022/04/07 01:39:30;;;;;;;1.02;0.90;;;9.50;99.90;;;;;;4171581;28;20058;-82
2022/04/07 01:41:31;;;;;;;1.52;0.90;;;9.40;99.90;;;;;;4172085;28;20141;-82
2022/04/07 01:43:34;;;;;;;8.10;1.00;;;9.40;99.90;;;;;;4173571;28;20045;-81
2022/04/07 01:45:36;;;;;;;0.80;0.80;;;9.40;99.90;;;;;;4174050;28;20860;-82
2022/04/07 01:47:40;;;;;;;0.73;0.70;;;9.40;99.90;;;;;;4160649;28;20840;-82
2022/04/07 01:49:45;;;;;;;1.15;1.00;;;9.40;99.90;;;;;;4167032;28;20061;-81
2022/04/07 01:51:48;;;;;;;0.98;0.85;;;9.40;99.90;;;;;;4176793;28;20066;-82
2022/04/07 01:53:51;;;;;;;1.90;0.88;;;9.40;99.90;;;;;;4161374;28;20062;-81
2022/04/07 01:55:53;;;;;;;0.68;0.68;;;9.30;99.90;;;;;;4172583;28;20924;-81
2022/04/07 01:57:55;;;;;;;0.90;0.85;;;9.30;99.90;;;;;;4167404;28;20065;-82
2022/04/07 01:59:58;;;;;;;1.77;0.73;;;9.30;99.90;;;;;;4188327;28;20183;-82
2022/04/07 02:02:00;;;;;;;0.70;0.70;;;9.30;99.90;;;;;;4171111;28;20055;-82
2022/04/07 02:04:02;;;;;;;0.77;0.68;;;9.30;99.90;;;;;;4184245;28;20128;-82
2022/04/07 02:06:12;;;;;;;1.83;0.68;;;9.20;99.90;;;;;;4183932;28;20053;-81
2022/04/07 02:08:14;;;;;;;2.28;0.90;;;9.10;99.90;;;;;;4167199;28;20089;-80
2022/04/07 02:10:17;;;;;;;2.22;1.13;;;9.10;99.90;;;;;;4160654;28;20731;-80
2022/04/07 02:12:20;;;;;;;1.27;0.70;;;9.10;99.90;;;;;;4167336;28;20085;-81
2022/04/07 02:14:22;;;;;;;0.90;0.90;;;9.10;99.90;;;;;;4183306;28;20041;-79
2022/04/07 02:16:23;;;;;;;0.75;0.70;;;9.10;99.90;;;;;;4190277;28;20045;-82
2022/04/07 02:18:25;;;;;;;0.52;0.52;;;9.10;99.90;;;;;;4173558;28;20057;-81
2022/04/07 02:20:27;;;;;;;0.98;0.80;;;9.10;99.90;;;;;;4165934;28;20065;-81
2022/04/07 02:22:29;;;;;;;3.05;0.90;;;9.00;99.90;;;;;;4165839;28;20054;-79
2022/04/07 02:24:31;;;;;;;0.70;0.70;;;9.00;99.90;;;;;;4165913;28;20064;-80
2022/04/07 02:26:33;;;;;;;0.77;0.77;;;9.00;99.90;;;;;;4164467;28;20062;-81
2022/04/07 02:28:34;;;;;;;3.40;0.88;;;8.90;99.90;;;;;;4155816;28;20849;-81
2022/04/07 02:30:36;;;;;;;1.02;0.65;;;8.90;99.90;;;;;;4166307;28;20058;-80
2022/04/07 02:32:38;;;;;;;0.70;0.70;;;8.90;99.90;;;;;;4166553;28;20916;-82
2022/04/07 02:34:41;;;;;;;1.50;0.88;;;8.90;99.90;;;;;;4167467;28;20066;-81
2022/04/07 02:36:43;;;;;;;0.73;0.70;;;8.90;99.90;;;;;;4170404;28;20068;-81
2022/04/07 02:38:45;;;;;;;0.95;0.60;;;8.90;99.90;;;;;;4180837;28;20153;-82
2022/04/07 02:40:47;;;;;;;1.60;0.60;;;8.90;99.90;;;;;;4155579;28;20069;-81
2022/04/07 02:42:48;;;;;;;1.10;1.00;;;8.80;99.90;;;;;;4174401;28;20140;-80
2022/04/07 02:44:50;;;;;;;0.90;0.80;;;8.90;99.90;;;;;;4180482;28;20057;-80
2022/04/07 02:46:52;;;;;;;0.88;0.60;;;8.80;99.90;;;;;;4175308;28;20073;-79
2022/04/07 02:48:53;;;;;;;0.75;0.60;;;8.80;99.90;;;;;;4173919;28;20058;-80
2022/04/07 02:50:55;;;;;;;0.73;0.60;;;8.80;99.90;;;;;;4171704;28;20064;-79
2022/04/07 02:52:57;;;;;;;0.70;0.50;;;8.90;99.90;;;;;;4169949;28;20076;-82
2022/04/07 02:54:59;;;;;;;1.00;0.43;;;8.90;99.90;;;;;;4169219;28;20085;-80
2022/04/07 02:57:01;;;;;;;0.55;0.55;;;8.90;99.90;;;;;;4168672;28;20056;-81
2022/04/07 02:59:03;;;;;;;1.10;0.60;;;8.90;99.90;;;;;;4168845;28;20824;-81
2022/04/07 03:01:04;;;;;;;0.75;0.57;;;8.90;99.90;;;;;;4164196;28;20148;-82
2022/04/07 03:03:06;;;;;;;0.57;0.55;;;8.90;99.90;;;;;;4173038;28;20145;-81
2022/04/07 03:05:08;;;;;;;2.22;0.70;;;8.90;99.90;;;;;;4181222;28;20049;-78
2022/04/07 03:07:10;;;;;;;3.25;0.50;;;8.90;99.90;;;;;;4174506;28;20093;-81
2022/04/07 03:09:11;;;;;;;0.65;0.65;;;8.90;99.90;;;;;;4174009;28;20805;-81
2022/04/07 03:11:13;;;;;;;0.85;0.52;;;9.00;99.90;;;;;;4171984;28;20896;-82
2022/04/07 03:13:15;;;;;;;1.63;0.95;;;9.00;99.90;;;;;;4163554;28;20113;-80
2022/04/07 03:15:16;;;;;;;0.90;0.60;;;8.90;99.90;;;;;;4170452;28;20050;-80
2022/04/07 03:17:18;;;;;;;0.43;0.43;;;9.00;99.90;;;;;;4169886;28;20084;-79
2022/04/07 03:19:20;;;;;;;1.67;0.43;;;8.90;99.90;;;;;;4172578;28;20148;-79
2022/04/07 03:21:22;;;;;;;1.55;0.50;;;8.90;99.90;;;;;;4176916;28;20046;-79
2022/04/07 03:23:23;;;;;;;0.70;0.70;;;8.90;99.90;;;;;;4198084;28;20167;-78
2022/04/07 03:25:25;;;;;;;0.45;0.45;;;9.00;99.90;;;;;;4180824;28;20101;-81
2022/04/07 03:27:27;;;;;;;0.50;0.50;;;9.00;99.90;;;;;;4172669;28;20140;-80
2022/04/07 03:29:30;;;;;;;0.60;0.60;;;9.00;99.90;;;;;;4171371;28;20089;-78
2022/04/07 03:31:31;;;;;;;1.27;0.55;;;9.00;99.90;;;;;;4170595;28;20052;-79
2022/04/07 03:33:33;;;;;;;0.47;0.45;;;8.90;99.90;;;;;;4170247;28;20187;-79
2022/04/07 03:35:38;;;;;;;1.10;0.40;;;8.90;99.90;;;;;;4169247;28;20066;-81
2022/04/07 03:37:40;;;;;;;0.98;0.60;;;9.00;99.90;;;;;;4170299;28;20065;-81
2022/04/07 03:39:42;;;;;;;0.40;0.40;;;9.00;99.90;;;;;;4182266;28;20689;-80
2022/04/07 03:41:43;;;;;;;0.93;0.73;;;9.00;99.90;;;;;;4167101;28;20062;-79
2022/04/07 03:43:46;;;;;;;0.65;0.45;;;9.10;99.90;;;;;;4169164;28;20054;-81
2022/04/07 03:45:47;;;;;;;2.65;0.68;;;9.10;99.90;;;;;;4172477;28;20062;-80
2022/04/07 03:47:49;;;;;;;0.60;0.60;;;9.10;99.90;;;;;;4186014;28;20131;-80
2022/04/07 03:49:51;;;;;;;0.52;0.52;;;9.00;99.90;;;;;;4170591;28;20100;-80
2022/04/07 03:51:52;;;;;;;0.50;0.50;;;9.00;99.90;;;;;;4168811;28;20908;-81
2022/04/07 03:53:54;;;;;;;0.60;0.60;;;9.00;99.90;;;;;;4170124;28;20097;-80
2022/04/07 03:55:56;;;;;;;0.40;0.40;;;9.00;99.90;;;;;;4172984;28;20151;-78
2022/04/07 03:57:58;;;;;;;0.95;0.52;;;9.00;99.90;;;;;;4180498;28;20081;-79
2022/04/07 04:00:00;;;;;;;0.57;0.57;;;9.00;99.90;;;;;;4171365;28;20066;-80
2022/04/07 04:02:01;;;;;;;0.77;0.50;;;9.00;99.90;;;;;;4167660;28;20076;-79
2022/04/07 04:04:03;;;;;;;0.50;0.50;;;9.00;99.90;;;;;;4167040;28;20070;-79
2022/04/07 04:06:05;;;;;;;2.80;0.60;;;9.00;99.90;;;;;;4164374;28;20097;-79
2022/04/07 04:08:08;;;;;;;0.63;0.50;;;9.00;99.90;;;;;;4164604;28;20164;-81
2022/04/07 04:10:10;;;;;;;1.35;0.38;;;9.00;99.90;;;;;;4204649;23;20055;-76
2022/04/07 04:12:11;;;;;;;2.33;0.60;;;9.00;99.90;;;;;;4192874;28;20053;-74
2022/04/07 04:14:13;;;;;;;0.85;0.68;;;9.00;99.90;;;;;;4188476;28;20061;-75
2022/04/07 04:16:17;;;;;;;0.50;0.50;;;9.00;99.90;;;;;;4193443;28;20120;-73
2022/04/07 04:18:19;;;;;;;0.57;0.57;;;9.00;99.90;;;;;;4196343;28;20049;-74
2022/04/07 04:20:20;;;;;;;0.95;0.50;;;9.00;99.90;;;;;;4195906;28;20057;-73
2022/04/07 04:22:22;;;;;;;0.70;0.60;;;9.00;99.90;;;;;;4187986;28;20053;-74
2022/04/07 04:24:24;;;;;;;1.52;0.77;;;8.90;99.90;;;;;;4194771;28;20227;-74
2022/04/07 04:26:26;;;;;;;0.63;0.63;;;9.00;99.90;;;;;;4194773;28;20061;-73
2022/04/07 04:28:28;;;;;;;0.60;0.43;;;9.00;99.90;;;;;;4193801;28;20060;-74
2022/04/07 04:30:30;;;;;;;0.52;0.52;;;9.00;99.90;;;;;;4191514;28;20882;-73
2022/04/07 04:32:32;;;;;;;1.83;0.50;;;9.00;99.90;;;;;;4182435;28;21259;-74
2022/04/07 04:34:33;;;;;;;0.68;0.52;;;9.10;99.90;;;;;;4184169;28;20053;-74
2022/04/07 04:36:35;;;;;;;0.57;0.57;;;9.00;99.90;;;;;;4192174;28;20061;-73
2022/04/07 04:38:37;;;;;;;2.40;0.50;;;9.10;99.90;;;;;;4191688;28;20180;-73
2022/04/07 04:40:39;;;;;;;0.57;0.57;;;9.10;99.90;;;;;;4189911;28;20068;-74
2022/04/07 04:42:41;;;;;;;0.68;0.30;;;9.10;99.90;;;;;;4191804;28;20879;-75
2022/04/07 04:44:43;;;;;;;0.60;0.50;;;9.00;99.90;;;;;;4198632;28;20061;-74
2022/04/07 04:46:45;;;;;;;0.60;0.60;;;9.00;99.90;;;;;;4196186;28;20052;-73
2022/04/07 04:48:46;;;;;;;1.27;1.02;;;9.00;99.90;;;;;;4195856;28;20057;-74
2022/04/07 04:50:48;;;;;;;1.00;0.60;;;9.00;99.90;;;;;;4195672;28;20057;-72
2022/04/07 04:52:51;;;;;;;0.73;0.73;;;9.10;99.90;;;;;;4198466;28;20049;-74
2022/04/07 04:54:52;;;;;;;0.43;0.43;;;9.10;99.90;;;;;;4198329;28;20127;-75
2022/04/07 04:56:54;;;;;;;0.45;0.45;;;9.10;99.90;;;;;;4197015;28;20045;-74
2022/04/07 04:58:59;;;;;;;0.50;0.40;;;9.10;99.90;;;;;;4193315;28;20159;-74
2022/04/07 05:01:00;;;;;;;2.25;0.52;;;9.10;99.90;;;;;;4195906;28;20061;-73
2022/04/07 05:03:02;;;;;;;0.30;0.30;;;9.10;99.90;;;;;;4196612;28;20075;-74
2022/04/07 05:05:06;;;;;;;0.40;0.40;;;9.10;99.90;;;;;;4198739;28;20065;-74
2022/04/07 05:07:07;;;;;;;0.50;0.50;;;9.10;99.90;;;;;;4193256;28;20053;-75
2022/04/07 05:09:09;;;;;;;1.95;0.82;;;9.20;99.90;;;;;;4195967;28;20901;-74
2022/04/07 05:11:11;;;;;;;0.45;0.45;;;9.20;99.70;;;;;;4195233;28;20065;-74
2022/04/07 05:13:12;;;;;;;0.30;0.30;;;9.20;99.40;;;;;;4194074;28;20179;-75
2022/04/07 05:15:14;;;;;;;0.93;0.52;;;9.20;99.60;;;;;;4187229;28;20092;-75
2022/04/07 05:17:21;;;;;;;0.70;0.57;;;9.20;99.90;;;;;;4186865;28;20792;-75
2022/04/07 05:19:22;;;;;;;0.30;0.30;;;9.20;99.90;;;;;;4191246;28;20918;-75
2022/04/07 05:21:24;;;;;;;1.02;0.70;;;9.20;99.90;;;;;;4187920;28;20079;-75
2022/04/07 05:23:26;;;;;;;0.40;0.40;;;9.10;99.90;;;;;;4193814;28;20156;-75
2022/04/07 05:25:27;;;;;;;0.32;0.32;;;9.10;99.90;;;;;;4183676;28;20053;-75
2022/04/07 05:27:32;;;;;;;0.40;0.40;;;9.00;99.90;;;;;;4187483;28;20732;-75
2022/04/07 05:29:34;;;;;;;0.63;0.40;;;9.00;99.90;;;;;;4193249;28;20057;-75
2022/04/07 05:31:37;;;;;;;1.98;0.40;;;9.10;99.90;;;;;;4191073;28;20063;-74
2022/04/07 05:33:39;;;;;;;0.40;0.40;;;9.10;99.90;;;;;;4190961;28;20100;-74
2022/04/07 05:35:41;;;;;;;0.30;0.30;;;9.10;99.90;;;;;;4184804;28;20058;-74
2022/04/07 05:37:43;;;;;;;0.30;0.30;;;9.20;99.90;;;;;;4194395;28;20104;-74
2022/04/07 05:39:45;;;;;;;2.83;0.60;;;9.20;99.90;;;;;;4191649;28;20057;-75
2022/04/07 05:41:46;;;;;;;0.30;0.30;;;9.30;99.90;;;;;;4180107;28;20178;-74
2022/04/07 05:43:49;;;;;;;0.47;0.40;;;9.30;99.90;;;;;;4194750;28;20060;-75
2022/04/07 05:45:52;;;;;;;0.40;0.40;;;9.30;99.90;;;;;;4194733;28;20057;-75
2022/04/07 05:47:54;;;;;;;1.30;0.40;;;9.30;99.90;;;;;;4187956;28;20826;-72
2022/04/07 05:49:56;;;;;;;0.47;0.40;;;9.30;99.90;;;;;;4193891;28;20974;-75
2022/04/07 05:52:01;;;;;;;0.60;0.30;;;9.30;99.80;;;;;;4196684;28;20064;-74
2022/04/07 05:54:02;;;;;;;1.05;0.40;;;9.30;99.20;;;;;;4186392;28;20175;-75
2022/04/07 05:56:04;;;;;;;0.30;0.30;;;9.30;99.20;;;;;;4193114;28;20061;-74
2022/04/07 05:58:07;;;;;;;0.20;0.20;;;9.40;98.80;;;;;;4193470;28;20061;-76
2022/04/07 06:00:12;;;;;;;1.05;0.20;;;9.60;98.70;;;;;;4192337;28;20086;-76
2022/04/07 06:02:14;;;;;;;1.00;0.30;;;9.70;98.10;;;;;;4189863;28;20927;-78
2022/04/07 06:04:16;;;;;;;2.05;0.32;;;9.90;97.40;;;;;;4190734;28;20089;-76
2022/04/07 06:06:18;;;;;;;0.30;0.20;;;10.00;96.90;;;;;;4192534;28;20117;-77
2022/04/07 06:08:20;;;;;;;0.55;0.20;;;10.10;96.90;;;;;;4194425;28;20870;-74
2022/04/07 06:10:21;;;;;;;0.20;0.20;;;10.10;96.20;;;;;;4192974;28;20155;-75
2022/04/07 06:12:23;;;;;;;0.20;0.20;;;10.00;96.20;;;;;;4187559;28;20087;-74
2022/04/07 06:14:25;;;;;;;0.63;0.30;;;10.00;96.00;;;;;;4189563;28;20931;-74
2022/04/07 06:16:27;;;;;;;2.38;0.20;;;10.00;95.60;;;;;;4193690;28;20052;-72
2022/04/07 06:18:29;;;;;;;0.40;0.30;;;10.00;95.70;;;;;;4193213;28;20057;-76
2022/04/07 06:20:30;;;;;;;0.77;0.20;;;10.00;95.40;;;;;;4186003;28;20064;-75
2022/04/07 06:22:32;;;;;;;0.20;0.20;;;10.00;95.40;;;;;;4185761;28;20053;-76
2022/04/07 06:24:34;;;;;;;2.25;0.43;;;10.10;95.30;;;;;;4189781;28;20096;-74
2022/04/07 06:26:36;;;;;;;0.20;0.20;;;10.10;94.90;;;;;;4202663;28;20061;-73
2022/04/07 06:28:40;;;;;;;0.38;0.30;;;10.10;94.70;;;;;;4183480;28;20057;-74
2022/04/07 06:30:41;;;;;;;0.28;0.20;;;10.10;94.50;;;;;;4193181;28;20061;-73
2022/04/07 06:32:44;;;;;;;1.08;0.30;;;10.10;94.50;;;;;;4195005;28;20807;-75
2022/04/07 06:34:46;;;;;;;0.20;0.20;;;10.10;94.60;;;;;;4193214;28;20060;-75
2022/04/07 06:36:48;;;;;;;0.55;0.40;;;10.10;94.60;;;;;;4192990;28;20159;-74
2022/04/07 06:38:50;;;;;;;3.53;0.38;;;10.10;94.60;;;;;;4184088;28;20156;-74
2022/04/07 06:40:51;;;;;;;0.30;0.25;;;10.10;94.30;;;;;;4193565;28;20060;-73
2022/04/07 06:42:56;;;;;;;0.38;0.20;;;10.20;94.30;;;;;;4189369;28;20095;-72
2022/04/07 06:44:58;;;;;;;0.73;0.30;;;10.20;94.10;;;;;;4191321;28;20049;-74
2022/04/07 06:47:00;;;;;;;0.40;0.20;;;10.20;93.80;;;;;;4187816;28;20063;-75
2022/04/07 06:49:02;;;;;;;0.20;0.20;;;10.30;93.70;;;;;;4187775;28;20151;-75
2022/04/07 06:51:03;;;;;;;0.10;0.10;;;10.30;93.60;;;;;;4185393;28;20061;-74
2022/04/07 06:53:05;;;;;;;3.10;1.08;;;10.30;93.50;;;;;;4202897;28;20925;-73
2022/04/07 06:55:09;;;;;;;0.30;0.20;;;10.20;93.70;;;;;;4196137;28;20060;-74
2022/04/07 06:57:11;;;;;;;0.73;0.50;;;10.20;93.80;;;;;;4183127;28;20186;-76
2022/04/07 06:59:13;;;;;;;0.30;0.20;;;10.20;94.10;;;;;;4186448;28;20872;-74
2022/04/07 07:01:14;;;;;;;0.20;0.20;;;10.10;94.00;;;;;;4189535;28;20092;-74
2022/04/07 07:03:16;;;;;;;0.52;0.20;;;10.10;94.00;;;;;;4185214;28;20065;-75
2022/04/07 07:05:19;;;;;;;0.55;0.20;;;10.10;93.90;;;;;;4189616;28;20053;-74
2022/04/07 07:07:21;;;;;;;0.13;0.13;;;10.20;93.90;;;;;;4194572;28;20052;-74
2022/04/07 07:09:23;;;;;;;2.35;0.25;;;10.20;93.50;;;;;;4190302;28;20065;-74
2022/04/07 07:11:24;;;;;;;0.40;0.40;;;10.20;93.60;;;;;;4189708;28;20061;-74
2022/04/07 07:13:26;;;;;;;0.63;0.28;;;10.30;93.40;;;;;;4183757;28;20183;-74
2022/04/07 07:15:28;;;;;;;1.83;0.30;;;10.40;93.40;;;;;;4185740;28;20060;-73
2022/04/07 07:17:33;;;;;;;1.20;0.65;;;10.60;93.10;;;;;;4188160;28;20163;-74
2022/04/07 07:19:35;;;;;;;3.40;0.40;;;10.80;92.80;;;;;;4187470;28;20061;-75
2022/04/07 07:21:37;;;;;;;0.30;0.30;;;11.00;92.10;;;;;;4184216;28;20315;-74
2022/04/07 07:23:38;;;;;;;0.25;0.25;;;11.10;91.90;;;;;;4187957;28;20053;-74
2022/04/07 07:25:40;;;;;;;0.35;0.30;;;11.10;91.60;;;;;;4186655;28;20860;-73
2022/04/07 07:27:45;;;;;;;0.30;0.30;;;11.10;91.90;;;;;;4190623;28;20899;-74
2022/04/07 07:29:47;;;;;;;0.28;0.28;;;11.10;91.50;;;;;;4188840;28;20658;-74
2022/04/07 07:31:49;;;;;;;0.38;0.30;;;11.00;91.40;;;;;;4184892;28;20959;-74
2022/04/07 07:33:51;;;;;;;0.40;0.30;;;11.10;91.40;;;;;;4198556;28;20076;-74
2022/04/07 07:35:53;;;;;;;0.30;0.17;;;11.30;91.20;;;;;;4191553;28;20068;-74
2022/04/07 07:37:56;;;;;;;0.70;0.20;;;11.40;91.20;;;;;;4191206;28;20089;-74
2022/04/07 07:40:08;;;;;;;0.20;0.20;;;11.50;90.90;;;;;;4189498;28;20057;-75
2022/04/07 07:42:10;;;;;;;0.20;0.20;;;11.60;90.50;;;;;;4186842;28;20057;-75
2022/04/07 07:44:18;;;;;;;1.15;0.28;;;11.80;90.60;;;;;;4187066;28;20061;-74
2022/04/07 07:46:20;;;;;;;0.22;0.20;;;11.90;89.80;;;;;;4188612;28;20065;-74
2022/04/07 07:48:29;;;;;;;1.45;0.30;;;12.00;90.00;;;;;;4190794;28;20061;-75
2022/04/07 07:50:30;;;;;;;2.08;0.20;;;12.10;89.20;;;;;;4187459;28;20061;-75
2022/04/07 07:52:33;;;;;;;0.77;0.35;;;12.10;89.00;;;;;;4186933;28;20053;-75
2022/04/07 07:54:34;;;;;;;0.90;0.20;;;12.00;88.70;;;;;;4189622;28;20160;-75
2022/04/07 07:56:36;;;;;;;0.20;0.20;;;12.00;89.60;;;;;;4187689;28;20057;-75
2022/04/07 07:58:41;;;;;;;0.20;0.20;;;12.00;88.70;;;;;;4183748;28;20231;-74
2022/04/07 08:00:43;;;;;;;1.55;0.30;;;12.00;88.40;;;;;;4183566;28;20057;-74
2022/04/07 08:02:45;;;;;;;0.55;0.32;;;11.80;88.80;;;;;;4188687;28;20057;-74
2022/04/07 08:04:47;;;;;;;4.28;0.82;;;11.70;89.40;;;;;;4190267;28;20095;-75
2022/04/07 08:06:48;;;;;;;0.70;0.40;;;11.60;89.50;;;;;;4183158;28;20678;-75
2022/04/07 08:08:50;;;;;;;1.20;0.28;;;11.60;89.90;;;;;;4186754;28;20092;-75
2022/04/07 08:10:55;;;;;;;1.83;0.30;;;11.60;89.60;;;;;;4187188;28;20886;-74
2022/04/07 08:12:57;;;;;;;0.60;0.50;;;11.60;90.00;;;;;;4190756;28;20057;-75
2022/04/07 08:14:59;;;;;;;2.25;1.10;;;11.70;90.30;;;;;;4196807;28;20037;-76
2022/04/07 08:17:01;;;;;;;0.43;0.40;;;11.70;90.20;;;;;;4185071;28;20071;-76
2022/04/07 08:19:04;;;;;;;2.63;0.80;;;11.90;89.60;;;;;;4197716;28;20160;-75
2022/04/07 08:21:06;;;;;;;1.65;0.40;;;12.00;88.30;;;;;;4185761;28;20057;-76
2022/04/07 08:23:08;;;;;;;1.55;0.50;;;12.00;88.10;;;;;;4192579;28;20103;-75
2022/04/07 08:25:10;;;;;;;0.82;0.60;;;12.00;88.00;;;;;;4188336;28;20103;-75
2022/04/07 08:27:12;;;;;;;0.20;0.20;;;12.10;87.80;;;;;;4189572;28;20063;-76
2022/04/07 08:29:14;;;;;;;0.40;0.30;;;12.20;87.30;;;;;;4188369;28;20099;-75
2022/04/07 08:31:16;;;;;;;0.20;0.20;;;12.20;87.50;;;;;;4192306;28;20288;-74
2022/04/07 08:33:18;;;;;;;0.30;0.20;;;12.30;87.20;;;;;;4195422;28;20909;-75
2022/04/07 08:35:19;;;;;;;2.13;0.43;;;12.40;86.70;;;;;;4194223;28;20067;-76
2022/04/07 08:37:21;;;;;;;0.50;0.20;;;12.40;87.20;;;;;;4188609;28;20701;-75
2022/04/07 08:39:23;;;;;;;1.08;0.75;;;12.40;85.90;;;;;;4190760;28;20065;-75
2022/04/07 08:41:31;;;;;;;0.68;0.20;;;12.30;86.20;;;;;;4191741;28;20698;-75
2022/04/07 08:43:34;;;;;;;0.38;0.30;;;12.30;87.50;;;;;;4190864;28;20061;-75
2022/04/07 08:45:37;;;;;;;0.20;0.20;;;12.30;86.40;;;;;;4187792;28;20871;-75
2022/04/07 08:47:40;;;;;;;1.38;0.30;;;12.30;86.30;;;;;;4191030;28;20068;-75
2022/04/07 08:49:43;;;;;;;0.32;0.13;;;12.30;86.10;;;;;;4196201;28;20917;-75
2022/04/07 08:51:46;;;;;;;2.40;0.32;;;12.60;85.80;;;;;;4197062;28;20056;-73
2022/04/07 08:53:48;;;;;;;0.20;0.10;;;12.70;84.30;;;;;;4184139;28;20061;-73
2022/04/07 08:55:49;;;;;;;0.57;0.20;;;12.70;84.70;;;;;;4189799;28;20151;-74
2022/04/07 08:57:51;;;;;;;0.17;0.17;;;12.90;84.80;;;;;;4189964;28;20104;-74
2022/04/07 08:59:53;;;;;;;0.95;0.20;;;13.00;81.60;;;;;;4209562;28;20056;-74
2022/04/07 09:02:05;;;;;;;0.10;0.10;;;12.80;81.90;;;;;;4184704;28;20068;-74
2022/04/07 09:04:10;;;;;;;0.10;0.10;;;12.60;82.40;;;;;;4186137;28;20942;-74
2022/04/07 09:06:14;;;;;;;0.15;0.10;;;12.50;83.30;;;;;;4189771;28;20057;-74
2022/04/07 09:08:18;;;;;;;0.40;0.10;;;12.50;83.80;;;;;;4195512;28;20093;-74
2022/04/07 09:10:22;;;;;;;0.45;0.20;;;12.50;82.40;;;;;;4184543;28;20123;-74
2022/04/07 09:12:24;;;;;;;0.90;0.10;;;12.50;82.60;;;;;;4196616;28;20060;-74
2022/04/07 09:14:31;;;;;;;4.38;0.60;;;12.50;83.50;;;;;;4189068;28;20174;-74
2022/04/07 09:16:37;;;;;;;3.92;0.30;;;12.50;83.60;;;;;;4188354;28;20063;-73
2022/04/07 09:18:41;;;;;;;0.30;0.30;;;12.40;83.30;;;;;;4195082;28;20056;-74
2022/04/07 09:20:43;;;;;;;0.60;0.10;;;12.30;83.50;;;;;;4197013;28;20057;-74
2022/04/07 09:22:44;;;;;;;0.13;0.13;;;12.30;83.60;;;;;;4188054;28;20044;-74
2022/04/07 09:24:48;;;;;;;0.20;0.13;;;12.20;83.40;;;;;;4191334;28;20053;-74
2022/04/07 09:26:49;;;;;;;0.20;0.20;;;12.20;83.70;;;;;;4188737;28;20053;-74
2022/04/07 09:28:57;;;;;;;2.90;0.55;;;12.30;83.90;;;;;;4186822;28;20121;-74
2022/04/07 09:31:00;;;;;;;0.85;0.20;;;12.30;83.30;;;;;;4186103;28;20065;-74
2022/04/07 09:33:02;;;;;;;0.60;0.50;;;12.20;83.50;;;;;;4191014;28;20257;-74
2022/04/07 09:35:04;;;;;;;1.25;0.30;;;12.20;83.80;;;;;;4188258;28;20764;-74
2022/04/07 09:37:07;;;;;;;1.35;0.30;;;12.10;83.10;;;;;;4185318;28;20813;-73
2022/04/07 09:39:09;;;;;;;0.52;0.20;;;12.10;83.90;;;;;;4187253;28;20148;-74
2022/04/07 09:41:12;;;;;;;0.55;0.55;;;12.00;85.50;;;;;;4186518;28;20065;-74
2022/04/07 09:43:14;;;;;;;0.40;0.20;;;11.90;86.90;;;;;;4190962;28;20064;-74
2022/04/07 09:45:21;;;;;;;0.22;0.22;;;11.80;87.80;;;;;;4188105;28;20898;-74
2022/04/07 09:47:33;;;;;;;1.58;0.40;;;11.80;87.80;;;;;;4190741;28;20079;-74
2022/04/07 09:49:35;;;;;;;0.80;0.30;;;11.80;87.40;;;;;;4193015;28;20081;-75
2022/04/07 09:51:41;;;;;;;4.20;0.60;;;11.80;88.10;;;;;;4190312;28;20053;-74
2022/04/07 09:53:43;;;;;;;0.95;0.70;;;11.80;87.40;;;;;;4189987;28;20057;-74
2022/04/07 09:55:52;;;;;;;1.02;0.60;;;11.90;88.00;;;;;;4186415;28;20096;-74
2022/04/07 09:57:55;;;;;;;1.08;0.52;;;12.20;87.90;;;;;;4186935;28;20093;-74
2022/04/07 09:59:59;;;;;;;1.08;0.30;;;12.40;86.50;;;;;;4190067;28;20059;-74
2022/04/07 10:02:00;;;;;;;1.83;0.35;;;12.50;85.40;;;;;;4189756;28;20044;-74
2022/04/07 10:04:05;;;;;;;1.52;0.40;;;12.60;85.30;;;;;;4186788;28;20061;-74
2022/04/07 10:06:08;;;;;;;3.10;0.50;;;12.60;84.90;;;;;;4188097;28;20053;-74
2022/04/07 10:08:10;;;;;;;0.35;0.20;;;12.60;85.80;;;;;;4186372;28;20687;-73
2022/04/07 10:10:12;;;;;;;0.63;0.30;;;12.70;85.60;;;;;;4189864;28;20053;-75
2022/04/07 10:12:14;;;;;;;0.20;0.20;;;12.80;84.70;;;;;;4188241;28;20061;-74
2022/04/07 10:14:21;;;;;;;0.35;0.20;;;12.80;84.30;;;;;;4196025;22;20022;-76
2022/04/07 10:16:24;;;;;;;0.28;0.10;;;12.70;83.20;;;;;;4184305;28;20764;-78
2022/04/07 10:18:52;;;;;;;0.22;0.22;;;12.60;83.40;;;;;;4182988;28;20057;-79
2022/04/07 10:20:58;;;;;;;0.50;0.38;;;12.60;84.10;;;;;;4172217;28;20212;-81
2022/04/07 10:22:59;;;;;;;1.17;0.20;;;12.70;84.30;;;;;;4189070;28;20120;-77
2022/04/07 10:25:03;;;;;;;0.60;0.20;;;12.80;83.80;;;;;;4205276;28;20057;-79
2022/04/07 10:27:09;;;;;;;2.17;0.20;;;12.80;82.20;;;;;;4166666;28;20057;-79
2022/04/07 10:29:24;;;;;;;0.47;0.30;;;12.70;82.70;;;;;;4165974;28;20880;-79
2022/04/07 10:31:26;;;;;;;3.60;0.20;;;12.60;82.90;;;;;;4157322;28;20065;-79
2022/04/07 10:33:38;;;;;;;0.20;0.20;;;12.60;83.20;;;;;;4159777;28;20088;-80
2022/04/07 10:35:49;;;;;;;0.40;0.20;;;12.60;83.30;;;;;;4183214;28;20061;-79
2022/04/07 10:37:51;;;;;;;2.38;0.35;;;12.60;83.50;;;;;;4150326;28;20877;-79
2022/04/07 10:39:53;;;;;;;0.32;0.30;;;12.70;83.50;;;;;;4153323;28;20064;-78
2022/04/07 10:41:54;;;;;;;3.17;0.13;;;12.70;83.70;;;;;;4167004;28;20092;-78
2022/04/07 10:44:18;;;;;;;1.38;0.17;;;12.50;84.00;;;;;;4166327;28;20049;-78